Terminal Aerodrome Forecast
Issued by NWS

Home | Current Version | Previous Version | Text Only | Print | Product List | Glossary On
Versions: 1 2 3 4 5 6 7 8 9 10 11 12 13 14 15 16
000
FTUS45 KRIW 261900 AAA
TAFWRL
TAF AMD
KWRL 261957Z 2620/2718 VRB04KT 3SM -SN BR SCT012 BKN025 OVC035
     FM262300 VRB04KT P6SM SCT025 BKN050
     FM270200 VRB04KT P6SM VCSH BKN040
     FM271000 VRB04KT P6SM VCFG SCT004 SCT040=

USA.gov is the U.S. government's official web portal to all federal, state and local government web resources and services.